Time;durP1;ratioP1;P1;durP2;ratioP2;P2;SDS_P1;SDS_P2;PMS_P1;PMS_P2;Temp;Humidity;BMP_temperature;BMP_pressure;BME280_temperature;BME280_humidity;BME280_pressure;Samples;Min_cycle;Max_cycle;Signal;HPM_P1;HPM_P2
2023/06/15 00:00:49;;;;;;;3.85;1.38;;;16.50;99.90;;;;;;5025771;28;20040;-68
2023/06/15 00:03:16;;;;;;;5.00;1.65;;;16.50;99.90;;;;;;5028370;28;20260;-68
2023/06/15 00:05:42;;;;;;;5.35;1.85;;;16.40;99.90;;;;;;5016867;28;20414;-69
2023/06/15 00:08:07;;;;;;;6.22;1.52;;;16.40;99.90;;;;;;5015377;28;20071;-68
2023/06/15 00:10:33;;;;;;;7.53;1.90;;;16.40;99.90;;;;;;5050145;28;20057;-69
2023/06/15 00:12:59;;;;;;;6.45;1.95;;;16.30;99.90;;;;;;5009879;28;20040;-68
2023/06/15 00:15:27;;;;;;;7.20;1.80;;;16.20;99.90;;;;;;5049552;28;20135;-68
2023/06/15 00:17:54;;;;;;;5.35;1.60;;;16.20;99.90;;;;;;5016552;28;20478;-68
2023/06/15 00:20:28;;;;;;;5.07;2.10;;;16.20;99.90;;;;;;5020647;28;20341;-68
2023/06/15 00:22:55;;;;;;;5.55;1.75;;;16.20;99.90;;;;;;5004781;28;20419;-69
2023/06/15 00:25:21;;;;;;;6.80;2.03;;;16.20;99.90;;;;;;5032772;28;20399;-69
2023/06/15 00:27:47;;;;;;;8.35;1.90;;;16.10;99.90;;;;;;5051888;28;20383;-68
2023/06/15 00:30:13;;;;;;;4.07;1.70;;;16.00;99.90;;;;;;5018272;28;20036;-68
2023/06/15 00:32:38;;;;;;;4.75;1.70;;;16.00;99.90;;;;;;5029050;28;20727;-68
2023/06/15 00:35:04;;;;;;;6.70;1.63;;;16.00;99.90;;;;;;5049265;28;20159;-68
2023/06/15 00:37:30;;;;;;;4.25;2.13;;;16.00;99.90;;;;;;5049269;28;20542;-69
2023/06/15 00:39:56;;;;;;;3.45;1.83;;;15.90;99.90;;;;;;5032448;28;20088;-68
2023/06/15 00:42:22;;;;;;;4.57;2.10;;;15.90;99.90;;;;;;5049117;28;20056;-68
2023/06/15 00:44:51;;;;;;;4.85;1.80;;;15.90;99.90;;;;;;5052100;28;20105;-68
2023/06/15 00:47:20;;;;;;;6.63;2.30;;;15.90;99.90;;;;;;5001444;28;20587;-68
2023/06/15 00:49:46;;;;;;;5.60;1.90;;;15.90;99.90;;;;;;5023089;28;20128;-69
2023/06/15 00:52:14;;;;;;;5.78;2.13;;;15.80;99.90;;;;;;4999745;28;20348;-69
2023/06/15 00:54:40;;;;;;;7.82;2.28;;;15.70;99.90;;;;;;5032825;28;20518;-68
2023/06/15 00:57:09;;;;;;;4.60;1.70;;;15.60;99.90;;;;;;4998319;28;20132;-69
2023/06/15 00:59:35;;;;;;;6.57;1.85;;;15.60;99.90;;;;;;5015301;28;20080;-69
2023/06/15 01:02:03;;;;;;;5.53;2.00;;;15.60;99.90;;;;;;5015460;28;20278;-69
2023/06/15 01:04:29;;;;;;;5.45;2.30;;;15.40;99.90;;;;;;5050734;28;20402;-69
2023/06/15 01:07:01;;;;;;;4.25;1.90;;;15.40;99.90;;;;;;5065041;28;20037;-69
2023/06/15 01:09:30;;;;;;;4.82;2.40;;;15.30;99.90;;;;;;5034031;28;20630;-69
2023/06/15 01:11:58;;;;;;;6.05;2.25;;;15.20;99.90;;;;;;5022672;28;20063;-67
2023/06/15 01:14:28;;;;;;;6.75;2.55;;;15.20;99.90;;;;;;5014635;28;20515;-68
2023/06/15 01:16:59;;;;;;;6.70;2.50;;;15.10;99.90;;;;;;5050776;28;20044;-67
2023/06/15 01:19:40;;;;;;;5.85;2.33;;;15.00;99.90;;;;;;5033863;28;20131;-68
2023/06/15 01:22:29;;;;;;;8.93;2.80;;;15.00;99.90;;;;;;5006262;28;20088;-68
2023/06/15 01:25:14;;;;;;;5.68;2.28;;;15.00;99.90;;;;;;5015552;28;20045;-68
2023/06/15 01:27:41;;;;;;;6.85;2.60;;;14.90;99.90;;;;;;5013917;28;20051;-68
2023/06/15 01:30:09;;;;;;;6.15;2.13;;;14.90;99.90;;;;;;5058671;28;20048;-68
2023/06/15 01:32:35;;;;;;;5.85;2.58;;;14.90;1.00;;;;;;5014870;28;20041;-68
2023/06/15 01:35:01;;;;;;;7.45;2.80;;;14.80;1.00;;;;;;4999184;28;20201;-68
2023/06/15 01:37:27;;;;;;;8.25;2.47;;;14.80;1.00;;;;;;5059315;28;20235;-69
2023/06/15 01:39:53;;;;;;;7.32;2.83;;;14.80;1.00;;;;;;5014775;28;20037;-69
2023/06/15 01:42:19;;;;;;;5.88;2.65;;;14.80;1.00;;;;;;4998510;28;20040;-67
2023/06/15 01:44:47;;;;;;;5.28;2.17;;;14.80;1.00;;;;;;5016409;28;20052;-68
2023/06/15 01:47:13;;;;;;;7.70;2.92;;;14.80;1.00;;;;;;5044971;28;20037;-67
2023/06/15 01:49:40;;;;;;;5.72;2.47;;;14.70;1.00;;;;;;5050528;28;20048;-68
2023/06/15 01:52:06;;;;;;;7.53;2.55;;;14.70;1.00;;;;;;5027153;28;20190;-69
2023/06/15 01:54:32;;;;;;;9.75;2.50;;;14.70;1.00;;;;;;4999544;28;20328;-68
2023/06/15 01:56:58;;;;;;;5.85;2.80;;;14.70;1.00;;;;;;5047910;28;20045;-69
2023/06/15 01:59:24;;;;;;;6.68;2.78;;;14.70;1.00;;;;;;5014266;28;20136;-68
2023/06/15 02:01:49;;;;;;;8.00;2.95;;;14.70;1.00;;;;;;5048324;28;20047;-69
2023/06/15 02:04:15;;;;;;;6.63;3.17;;;14.70;1.00;;;;;;5015150;28;20049;-69
2023/06/15 02:06:41;;;;;;;5.93;3.03;;;14.70;1.00;;;;;;5014588;28;20785;-69
2023/06/15 02:09:07;;;;;;;6.10;3.08;;;14.70;1.00;;;;;;5030759;28;20043;-69
2023/06/15 02:11:32;;;;;;;8.15;2.95;;;14.60;1.00;;;;;;5014805;28;20104;-68
2023/06/15 02:13:59;;;;;;;6.82;3.30;;;14.60;1.00;;;;;;4997272;28;20466;-68
2023/06/15 02:16:26;;;;;;;8.18;2.83;;;14.60;1.00;;;;;;5014017;28;20128;-69
2023/06/15 02:18:52;;;;;;;6.75;3.20;;;14.50;1.00;;;;;;5016789;28;20045;-69
2023/06/15 02:21:18;;;;;;;9.52;3.35;;;14.50;1.00;;;;;;5002333;28;20045;-69
2023/06/15 02:23:45;;;;;;;6.68;2.70;;;14.50;3.20;;;;;;4998292;28;20048;-70
2023/06/15 02:26:11;;;;;;;7.43;3.10;;;14.50;5.70;;;;;;4997662;28;20517;-69
2023/06/15 02:28:36;;;;;;;7.03;2.97;;;14.40;6.30;;;;;;5030126;28;20045;-69
2023/06/15 02:31:02;;;;;;;6.05;2.88;;;14.40;3.70;;;;;;5048211;28;20077;-69
2023/06/15 02:33:27;;;;;;;7.32;2.78;;;14.40;1.00;;;;;;5057463;28;20043;-69
2023/06/15 02:35:53;;;;;;;4.72;3.30;;;14.30;1.00;;;;;;5034598;28;20051;-69
2023/06/15 02:38:20;;;;;;;7.13;3.38;;;14.30;1.00;;;;;;5050436;28;20143;-69
2023/06/15 02:40:45;;;;;;;6.80;3.75;;;14.40;1.80;;;;;;5019579;28;20502;-69
2023/06/15 02:43:11;;;;;;;9.65;3.10;;;14.40;3.40;;;;;;5026400;28;20311;-69
2023/06/15 02:45:37;;;;;;;7.53;3.17;;;14.30;1.00;;;;;;5053797;28;20044;-69
2023/06/15 02:48:03;;;;;;;5.40;3.25;;;14.30;1.00;;;;;;5017752;28;20498;-68
2023/06/15 02:50:29;;;;;;;8.23;3.28;;;14.20;1.00;;;;;;5062576;28;20247;-68
2023/06/15 02:52:55;;;;;;;6.10;3.20;;;14.10;1.00;;;;;;5018566;28;20040;-69
2023/06/15 02:55:22;;;;;;;8.30;2.83;;;14.10;2.30;;;;;;5053528;28;20040;-69
2023/06/15 02:57:48;;;;;;;7.18;3.83;;;14.00;1.00;;;;;;5036021;28;20051;-69
2023/06/15 03:00:14;;;;;;;10.15;3.67;;;14.00;6.00;;;;;;5017754;28;20036;-69
2023/06/15 03:02:42;;;;;;;7.35;3.63;;;13.90;26.00;;;;;;5018229;28;20044;-69
2023/06/15 03:05:09;;;;;;;8.70;3.78;;;13.90;39.00;;;;;;5019016;28;20099;-69
2023/06/15 03:07:35;;;;;;;6.50;3.80;;;13.90;82.90;;;;;;5019040;28;20048;-69
2023/06/15 03:10:00;;;;;;;8.18;3.83;;;13.90;83.00;;;;;;5004526;28;20052;-69
2023/06/15 03:12:26;;;;;;;8.77;3.58;;;13.90;92.30;;;;;;5017857;28;20105;-69
2023/06/15 03:14:52;;;;;;;5.07;3.25;;;14.00;99.90;;;;;;5018300;28;20291;-69
2023/06/15 03:17:19;;;;;;;7.30;3.55;;;14.00;99.90;;;;;;5000526;28;20202;-69
2023/06/15 03:19:47;;;;;;;8.52;5.00;;;14.20;99.90;;;;;;5018040;28;20090;-68
2023/06/15 03:22:14;;;;;;;3.97;3.20;;;14.40;99.90;;;;;;5027022;28;20829;-69
2023/06/15 03:24:41;;;;;;;4.88;2.50;;;14.50;93.80;;;;;;5000158;28;20063;-69
2023/06/15 03:27:10;;;;;;;4.57;2.50;;;14.60;40.90;;;;;;5035371;28;20733;-69
2023/06/15 03:29:38;;;;;;;8.77;2.63;;;14.70;1.00;;;;;;5019808;28;20049;-68
2023/06/15 03:32:08;;;;;;;7.20;2.35;;;14.70;1.00;;;;;;5007232;28;20237;-68
2023/06/15 03:34:37;;;;;;;4.05;2.72;;;14.70;1.00;;;;;;5019612;28;20052;-69
2023/06/15 03:37:05;;;;;;;7.88;2.78;;;14.70;1.00;;;;;;5002716;28;20067;-69
2023/06/15 03:39:31;;;;;;;4.97;2.67;;;14.60;1.00;;;;;;5016824;28;20159;-69
2023/06/15 03:41:56;;;;;;;5.85;2.92;;;14.50;1.00;;;;;;5048689;28;20159;-69
2023/06/15 03:44:22;;;;;;;5.38;2.55;;;14.50;1.00;;;;;;5021650;28;20143;-68
2023/06/15 03:46:48;;;;;;;4.82;2.70;;;14.50;1.00;;;;;;5016284;28;20137;-69
2023/06/15 03:49:15;;;;;;;9.07;2.38;;;14.40;1.00;;;;;;4999897;28;20048;-68
2023/06/15 03:51:42;;;;;;;3.40;2.40;;;14.40;1.00;;;;;;5016090;28;20456;-68
2023/06/15 03:54:07;;;;;;;5.70;2.88;;;14.50;1.00;;;;;;5024358;28;20044;-69
2023/06/15 03:56:33;;;;;;;5.55;2.70;;;14.60;1.00;;;;;;5049225;28;20049;-69
2023/06/15 03:58:59;;;;;;;5.47;2.85;;;14.60;1.00;;;;;;5052462;28;20605;-68
2023/06/15 04:01:25;;;;;;;6.72;3.00;;;14.60;1.00;;;;;;5003711;28;20430;-69
2023/06/15 04:03:51;;;;;;;6.78;3.40;;;14.70;1.00;;;;;;5067970;28;20040;-69
2023/06/15 04:06:21;;;;;;;9.23;3.72;;;14.80;1.00;;;;;;5018582;28;20044;-69
2023/06/15 04:08:47;;;;;;;4.45;3.40;;;14.80;1.00;;;;;;5030604;28;20037;-69
2023/06/15 04:11:13;;;;;;;7.05;3.80;;;14.80;1.00;;;;;;5016303;28;20264;-67
2023/06/15 04:13:38;;;;;;;6.40;4.20;;;14.80;1.00;;;;;;5032883;28;20057;-68
2023/06/15 04:16:04;;;;;;;9.45;4.45;;;14.80;1.00;;;;;;5055039;28;20152;-68
2023/06/15 04:18:30;;;;;;;6.60;4.32;;;14.90;25.90;;;;;;5034282;28;20537;-68
2023/06/15 04:20:55;;;;;;;8.00;4.05;;;14.90;40.00;;;;;;5021640;28;20058;-69
2023/06/15 04:23:22;;;;;;;9.40;4.28;;;14.90;52.90;;;;;;5054222;28;20339;-68
2023/06/15 04:25:48;;;;;;;6.25;4.05;;;14.90;61.10;;;;;;5032190;28;20341;-69
2023/06/15 04:28:13;;;;;;;6.53;3.80;;;14.90;77.60;;;;;;5002207;28;20526;-69
2023/06/15 04:30:40;;;;;;;5.40;3.33;;;14.90;75.10;;;;;;5017084;28;20098;-69
2023/06/15 04:33:13;;;;;;;7.22;3.70;;;14.90;70.70;;;;;;4999566;28;20366;-69
2023/06/15 04:35:46;;;;;;;5.72;3.55;;;15.00;60.90;;;;;;5005300;28;20356;-69
2023/06/15 04:38:12;;;;;;;5.82;3.20;;;15.00;46.80;;;;;;5010513;28;20471;-69
2023/06/15 04:40:41;;;;;;;6.32;3.05;;;15.10;12.30;;;;;;5034660;28;20051;-69
2023/06/15 04:43:08;;;;;;;5.53;3.38;;;15.20;1.00;;;;;;5017174;28;20086;-69
2023/06/15 04:45:35;;;;;;;6.95;3.08;;;15.30;1.00;;;;;;5022120;28;20049;-69
2023/06/15 04:48:02;;;;;;;8.52;3.08;;;15.30;1.00;;;;;;5014701;28;20033;-69
2023/06/15 04:50:29;;;;;;;7.82;3.20;;;15.30;1.00;;;;;;5021987;28;20209;-69
2023/06/15 04:52:56;;;;;;;5.75;2.78;;;15.40;1.00;;;;;;5001119;28;20400;-69
2023/06/15 04:55:21;;;;;;;4.30;2.92;;;15.40;1.00;;;;;;5017092;28;20040;-69
2023/06/15 04:57:47;;;;;;;5.00;2.83;;;15.50;1.00;;;;;;5033911;28;20056;-69
2023/06/15 05:00:13;;;;;;;6.25;2.95;;;15.50;1.00;;;;;;5033783;28;20131;-68
2023/06/15 05:02:39;;;;;;;4.53;2.92;;;15.60;99.90;;;;;;5001714;28;20047;-69
2023/06/15 05:05:05;;;;;;;4.55;2.70;;;15.70;99.90;;;;;;5017920;28;20039;-68
2023/06/15 05:07:31;;;;;;;5.80;2.42;;;15.70;99.90;;;;;;5006003;28;20657;-68
2023/06/15 05:09:57;;;;;;;6.05;1.90;;;15.80;99.90;;;;;;4998627;28;20443;-69
2023/06/15 05:12:22;;;;;;;5.95;2.40;;;15.80;99.90;;;;;;5017551;28;20037;-69
2023/06/15 05:14:48;;;;;;;6.32;2.30;;;15.90;99.90;;;;;;5041906;28;20052;-69
2023/06/15 05:17:14;;;;;;;4.63;2.08;;;16.00;99.90;;;;;;5019543;28;20585;-69
2023/06/15 05:19:40;;;;;;;4.47;2.17;;;16.10;99.90;;;;;;5000691;28;20178;-70
2023/06/15 05:22:06;;;;;;;4.03;2.17;;;16.20;99.90;;;;;;5031781;28;20143;-69
2023/06/15 05:24:32;;;;;;;6.43;2.35;;;16.30;99.90;;;;;;5033758;28;20624;-70
2023/06/15 05:27:08;;;;;;;6.38;2.30;;;16.40;99.90;;;;;;5015310;28;20044;-69
2023/06/15 05:29:36;;;;;;;7.18;2.65;;;16.80;99.90;;;;;;5014756;28;20576;-70
2023/06/15 05:32:02;;;;;;;6.88;2.17;;;17.30;99.90;;;;;;5014396;28;20315;-70
2023/06/15 05:34:28;;;;;;;8.82;2.28;;;17.80;99.90;;;;;;5017576;28;20713;-70
2023/06/15 05:36:53;;;;;;;7.45;2.10;;;18.20;99.90;;;;;;5029136;28;20049;-70
2023/06/15 05:39:20;;;;;;;6.22;2.03;;;18.50;99.90;;;;;;5027533;28;20586;-70
2023/06/15 05:41:46;;;;;;;5.35;2.17;;;18.80;99.90;;;;;;5032467;28;20535;-69
2023/06/15 05:44:12;;;;;;;4.47;1.92;;;18.90;99.90;;;;;;5033618;28;20043;-69
2023/06/15 05:46:38;;;;;;;7.07;2.15;;;19.20;97.60;;;;;;5001509;28;20679;-69
2023/06/15 05:49:03;;;;;;;3.83;2.10;;;19.40;92.80;;;;;;4999031;28;20082;-69
2023/06/15 05:51:29;;;;;;;3.80;1.95;;;19.60;41.10;;;;;;5014594;28;20499;-69
2023/06/15 05:53:55;;;;;;;3.88;1.77;;;19.70;8.60;;;;;;4998665;28;20291;-69
2023/06/15 05:56:21;;;;;;;7.63;2.30;;;20.00;1.00;;;;;;4996325;28;20435;-69
2023/06/15 05:58:47;;;;;;;5.05;1.80;;;20.10;1.00;;;;;;5007544;28;20199;-70
2023/06/15 06:01:13;;;;;;;2.65;1.75;;;20.20;1.00;;;;;;5015874;28;20036;-70
2023/06/15 06:03:40;;;;;;;4.38;1.80;;;20.40;1.00;;;;;;5025760;28;20049;-70
2023/06/15 06:06:06;;;;;;;7.15;1.55;;;20.60;99.90;;;;;;4997046;28;20117;-70
2023/06/15 06:08:31;;;;;;;4.10;1.90;;;20.60;99.90;;;;;;5031442;28;20044;-70
2023/06/15 06:10:57;;;;;;;3.75;1.70;;;20.50;99.90;;;;;;5030678;28;20120;-70
2023/06/15 06:13:24;;;;;;;2.95;1.73;;;20.40;99.90;;;;;;5014215;28;20150;-71
2023/06/15 06:15:49;;;;;;;4.60;1.75;;;20.40;99.90;;;;;;5032726;28;20144;-71
2023/06/15 06:18:15;;;;;;;3.95;1.70;;;20.40;99.90;;;;;;5029106;28;20051;-70
2023/06/15 06:20:41;;;;;;;4.18;1.60;;;20.60;99.90;;;;;;5044653;28;20041;-70
2023/06/15 06:23:07;;;;;;;3.45;1.40;;;20.70;99.90;;;;;;5029962;28;20037;-69
2023/06/15 06:25:33;;;;;;;4.05;1.30;;;20.90;99.90;;;;;;5032197;28;20097;-70
2023/06/15 06:27:58;;;;;;;5.13;1.50;;;20.90;99.90;;;;;;4983478;28;20334;-69
2023/06/15 06:30:27;;;;;;;3.45;1.60;;;20.80;99.90;;;;;;5000323;28;20473;-69
2023/06/15 06:32:53;;;;;;;4.38;1.48;;;20.80;99.90;;;;;;5020865;28;20032;-70
2023/06/15 06:35:18;;;;;;;7.88;1.75;;;20.80;99.90;;;;;;5000509;28;20218;-69
2023/06/15 06:37:45;;;;;;;8.07;1.63;;;20.80;99.90;;;;;;5006727;28;20051;-70
2023/06/15 06:40:11;;;;;;;4.95;1.70;;;20.90;99.90;;;;;;5013328;28;20311;-70
2023/06/15 06:42:37;;;;;;;2.75;1.48;;;21.00;99.90;;;;;;5013998;28;20048;-69
2023/06/15 06:45:03;;;;;;;5.60;1.25;;;21.10;99.90;;;;;;5046486;28;20510;-71
2023/06/15 06:47:28;;;;;;;8.02;2.08;;;21.10;99.90;;;;;;4998132;28;20114;-70
2023/06/15 06:49:54;;;;;;;3.65;1.60;;;21.30;99.90;;;;;;5047258;28;20318;-70
2023/06/15 06:52:20;;;;;;;5.13;1.80;;;21.40;99.90;;;;;;5029479;28;20756;-70
2023/06/15 06:54:45;;;;;;;3.08;1.80;;;21.40;99.90;;;;;;4999971;28;20521;-71
2023/06/15 06:57:11;;;;;;;3.28;2.10;;;21.60;99.90;;;;;;5001556;28;20068;-71
2023/06/15 06:59:37;;;;;;;5.88;1.98;;;21.60;99.90;;;;;;5001956;28;21133;-71
2023/06/15 07:02:03;;;;;;;4.88;1.65;;;21.60;99.90;;;;;;4984001;28;20044;-69
2023/06/15 07:04:28;;;;;;;4.97;1.50;;;21.80;99.90;;;;;;5015108;28;20041;-70
2023/06/15 07:06:54;;;;;;;3.55;1.60;;;21.90;99.90;;;;;;5000917;28;20041;-70
2023/06/15 07:09:20;;;;;;;4.07;1.60;;;21.90;99.90;;;;;;5034546;28;20052;-69
2023/06/15 07:11:45;;;;;;;5.30;1.30;;;21.80;99.90;;;;;;5048945;28;20048;-70
2023/06/15 07:14:11;;;;;;;3.85;1.20;;;21.90;99.90;;;;;;5015890;28;20049;-70
2023/06/15 07:16:37;;;;;;;8.38;1.95;;;22.00;99.90;;;;;;5002825;28;20052;-70
2023/06/15 07:19:02;;;;;;;5.55;1.60;;;22.10;99.90;;;;;;5002708;28;20408;-70
2023/06/15 07:21:28;;;;;;;4.13;1.80;;;22.10;99.90;;;;;;5001986;28;20040;-70
2023/06/15 07:23:54;;;;;;;4.97;1.58;;;22.20;99.90;;;;;;5016921;28;20400;-69
2023/06/15 07:26:20;;;;;;;6.47;2.10;;;22.10;99.90;;;;;;5019317;28;20087;-69
2023/06/15 07:28:45;;;;;;;5.40;1.67;;;22.00;99.90;;;;;;5003288;28;20274;-69
2023/06/15 07:31:11;;;;;;;7.20;2.05;;;22.00;99.90;;;;;;5005187;28;20040;-70
2023/06/15 07:33:37;;;;;;;4.40;2.28;;;22.00;99.90;;;;;;5052129;28;20531;-70
2023/06/15 07:36:03;;;;;;;6.50;2.17;;;22.10;99.90;;;;;;5037759;28;20222;-71
2023/06/15 07:38:30;;;;;;;8.93;2.30;;;22.00;99.90;;;;;;5020405;28;20048;-71
2023/06/15 07:40:57;;;;;;;3.22;1.67;;;22.00;99.90;;;;;;5038334;28;20041;-70
2023/06/15 07:43:22;;;;;;;4.18;1.75;;;22.10;99.90;;;;;;5035705;28;20638;-70
2023/06/15 07:45:48;;;;;;;5.00;1.73;;;22.30;99.90;;;;;;5034986;28;20029;-69
2023/06/15 07:48:14;;;;;;;9.00;1.73;;;22.50;99.90;;;;;;5004423;28;20078;-69
2023/06/15 07:50:39;;;;;;;4.75;1.70;;;22.40;99.90;;;;;;5003881;28;20052;-69
2023/06/15 07:53:05;;;;;;;5.03;1.42;;;22.60;99.90;;;;;;5003492;28;20037;-70
2023/06/15 07:55:31;;;;;;;4.78;1.52;;;22.70;99.90;;;;;;5003055;28;20478;-70
2023/06/15 07:57:57;;;;;;;3.97;1.50;;;22.70;99.90;;;;;;5022853;28;20033;-70
2023/06/15 08:00:24;;;;;;;4.03;1.70;;;22.80;99.90;;;;;;5020555;28;20040;-69
2023/06/15 08:02:49;;;;;;;5.88;1.52;;;22.90;99.90;;;;;;5018515;28;20127;-70
2023/06/15 08:05:15;;;;;;;3.95;1.63;;;23.00;99.90;;;;;;5018640;28;20048;-69
2023/06/15 08:07:41;;;;;;;5.82;1.48;;;23.10;99.90;;;;;;5032851;28;20421;-70
2023/06/15 08:10:07;;;;;;;4.28;1.40;;;23.20;99.90;;;;;;4999864;28;20041;-70
2023/06/15 08:12:33;;;;;;;4.53;1.58;;;23.20;99.90;;;;;;4999150;28;20041;-70
2023/06/15 08:14:59;;;;;;;4.97;1.60;;;23.30;99.90;;;;;;5012564;28;20155;-70
2023/06/15 08:17:25;;;;;;;3.55;1.48;;;23.40;99.90;;;;;;5002388;28;20049;-69
2023/06/15 08:19:53;;;;;;;5.35;1.58;;;23.50;99.90;;;;;;5022237;28;20567;-69
2023/06/15 08:22:19;;;;;;;2.75;1.45;;;23.40;99.90;;;;;;5020857;28;20056;-69
2023/06/15 08:24:45;;;;;;;3.80;1.40;;;23.50;99.90;;;;;;5018531;28;20036;-69
2023/06/15 08:27:11;;;;;;;5.25;1.45;;;23.50;99.90;;;;;;5003002;28;20045;-69
2023/06/15 08:29:43;;;;;;;5.47;1.58;;;23.60;99.90;;;;;;4999013;28;20115;-69
2023/06/15 08:32:13;;;;;;;2.80;1.33;;;23.70;99.90;;;;;;5014481;28;20418;-69
2023/06/15 08:34:43;;;;;;;4.18;1.15;;;24.10;99.90;;;;;;5037271;28;20043;-69
2023/06/15 08:37:11;;;;;;;5.57;1.40;;;24.20;99.90;;;;;;5005930;28;20491;-70
2023/06/15 08:39:38;;;;;;;3.17;1.38;;;24.30;99.90;;;;;;5020026;28;20071;-69
2023/06/15 08:42:04;;;;;;;3.70;1.42;;;24.30;99.90;;;;;;5020222;28;20063;-70
2023/06/15 08:44:31;;;;;;;1.58;0.88;;;24.30;99.90;;;;;;5002489;28;20106;-70
2023/06/15 08:47:00;;;;;;;3.50;1.10;;;24.30;65.90;;;;;;5005713;28;20478;-70
2023/06/15 08:49:26;;;;;;;2.33;0.93;;;24.30;75.00;;;;;;5003623;28;20521;-68
2023/06/15 08:51:54;;;;;;;3.35;1.30;;;24.20;83.70;;;;;;5001459;28;20044;-70
2023/06/15 08:54:22;;;;;;;4.47;1.33;;;24.20;99.00;;;;;;5014328;28;20459;-70
2023/06/15 08:56:48;;;;;;;3.60;1.10;;;24.20;91.10;;;;;;5015078;28;20060;-69
2023/06/15 08:59:14;;;;;;;4.07;1.40;;;24.30;61.00;;;;;;5050602;28;20470;-68
2023/06/15 09:01:43;;;;;;;4.55;1.30;;;24.40;33.80;;;;;;5017932;28;20110;-69
2023/06/15 09:04:09;;;;;;;4.30;1.60;;;24.60;33.10;;;;;;5016035;28;20341;-69
2023/06/15 09:06:35;;;;;;;5.50;1.10;;;24.80;28.00;;;;;;5033616;28;20522;-69
2023/06/15 09:09:03;;;;;;;2.40;1.20;;;24.90;36.30;;;;;;5033923;28;20506;-69
2023/06/15 09:11:29;;;;;;;2.40;1.13;;;25.20;23.50;;;;;;5015162;28;20072;-69
2023/06/15 09:13:55;;;;;;;3.13;1.20;;;25.30;15.30;;;;;;5030884;28;20136;-69
2023/06/15 09:16:21;;;;;;;4.15;1.20;;;25.50;18.10;;;;;;5031728;28;20310;-68
2023/06/15 09:18:51;;;;;;;5.18;1.15;;;25.70;17.60;;;;;;5014275;28;20055;-69
2023/06/15 09:21:21;;;;;;;4.43;1.20;;;26.00;26.10;;;;;;5016502;28;20051;-69
2023/06/15 09:23:47;;;;;;;2.85;1.27;;;26.10;21.90;;;;;;5033443;28;20048;-69
2023/06/15 09:26:23;;;;;;;4.20;1.35;;;26.40;26.10;;;;;;5032963;28;20036;-69
2023/06/15 09:28:49;;;;;;;3.95;1.35;;;26.60;28.20;;;;;;5033337;28;20056;-69
2023/06/15 09:31:33;;;;;;;2.45;1.25;;;26.70;28.90;;;;;;5066797;28;20071;-69
2023/06/15 09:34:06;;;;;;;6.20;1.20;;;26.90;26.40;;;;;;5016347;28;20437;-69
2023/06/15 09:36:49;;;;;;;7.93;1.50;;;26.90;30.20;;;;;;5033812;28;20550;-69
2023/06/15 09:39:22;;;;;;;3.55;1.27;;;26.90;24.90;;;;;;5033077;28;20312;-69
2023/06/15 09:41:58;;;;;;;7.22;1.15;;;27.10;23.80;;;;;;5033244;28;20583;-70
2023/06/15 09:44:25;;;;;;;3.92;1.00;;;27.20;25.60;;;;;;5016667;28;20151;-69
2023/06/15 09:46:58;;;;;;;3.60;1.20;;;27.20;33.90;;;;;;5051486;28;20043;-70
2023/06/15 09:49:25;;;;;;;6.43;1.23;;;27.40;37.50;;;;;;5032933;28;20072;-70
2023/06/15 09:51:52;;;;;;;5.03;1.00;;;27.70;46.20;;;;;;5012226;28;20037;-69
2023/06/15 09:54:20;;;;;;;4.22;1.10;;;27.60;38.40;;;;;;5016561;28;20153;-70
2023/06/15 09:56:49;;;;;;;3.17;1.10;;;27.80;36.70;;;;;;5004477;28;20578;-70
2023/06/15 09:59:15;;;;;;;5.30;1.50;;;27.90;38.60;;;;;;5017323;28;20055;-70
2023/06/15 10:01:45;;;;;;;2.38;0.95;;;27.80;37.40;;;;;;5036758;28;20642;-72
2023/06/15 10:04:12;;;;;;;5.68;1.35;;;27.80;39.50;;;;;;5023889;28;20033;-70
2023/06/15 10:06:41;;;;;;;4.63;1.42;;;27.70;35.80;;;;;;5007221;28;20761;-71
2023/06/15 10:09:09;;;;;;;2.20;1.20;;;27.90;45.00;;;;;;5018537;28;20082;-69
2023/06/15 10:11:39;;;;;;;5.18;1.35;;;27.90;44.60;;;;;;5039594;28;20745;-70
2023/06/15 10:14:28;;;;;;;5.18;1.25;;;28.00;40.30;;;;;;5004625;28;20048;-71
2023/06/15 10:16:59;;;;;;;3.20;1.48;;;28.20;49.40;;;;;;5021509;28;20053;-70
2023/06/15 10:19:27;;;;;;;5.25;1.50;;;28.20;55.80;;;;;;5021049;28;20112;-69
2023/06/15 10:21:54;;;;;;;5.60;1.50;;;28.40;64.30;;;;;;5036487;28;20918;-69
2023/06/15 10:24:22;;;;;;;4.05;1.75;;;28.20;62.00;;;;;;5000475;28;20056;-69
2023/06/15 10:26:48;;;;;;;3.58;1.63;;;28.00;68.90;;;;;;4999975;28;20036;-70
2023/06/15 10:29:23;;;;;;;9.15;1.50;;;28.10;82.80;;;;;;5019301;28;20091;-70
2023/06/15 10:32:28;;;;;;;3.97;1.20;;;28.20;77.80;;;;;;5003711;28;20037;-70
2023/06/15 10:34:58;;;;;;;4.45;1.30;;;28.30;81.10;;;;;;4995673;28;20120;-70
2023/06/15 10:37:35;;;;;;;6.53;1.30;;;28.30;80.00;;;;;;5034544;28;20649;-70
2023/06/15 10:40:18;;;;;;;2.97;0.95;;;28.00;84.90;;;;;;5016095;28;20076;-70
2023/06/15 10:42:44;;;;;;;;;;;27.70;88.60;;;;;;5018772;28;20095;-70
2023/06/15 10:45:31;;;;;;;2.67;1.08;;;27.30;84.10;;;;;;5034899;28;19932;-72
2023/06/15 10:47:58;;;;;;;3.08;1.27;;;27.30;65.70;;;;;;5017860;28;20049;-70
2023/06/15 10:50:25;;;;;;;3.70;1.20;;;27.40;89.60;;;;;;5018547;28;20829;-70
2023/06/15 10:52:51;;;;;;;3.70;1.40;;;27.50;95.60;;;;;;5002443;28;20071;-71
2023/06/15 10:55:22;;;;;;;2.03;1.10;;;27.40;96.00;;;;;;5007080;28;20064;-71
2023/06/15 10:57:48;;;;;;;3.08;1.05;;;27.60;91.30;;;;;;5007390;28;21019;-71
2023/06/15 11:00:24;;;;;;;4.05;0.93;;;27.80;84.60;;;;;;5041727;28;20128;-71
2023/06/15 11:02:54;;;;;;;4.00;0.82;;;27.70;75.00;;;;;;5006052;28;20115;-71
2023/06/15 11:05:21;;;;;;;3.83;0.70;;;27.70;83.00;;;;;;5024474;28;20629;-70
2023/06/15 11:07:51;;;;;;;3.78;0.80;;;28.00;81.60;;;;;;5019028;28;20041;-70
2023/06/15 11:10:22;;;;;;;2.13;0.93;;;27.90;88.40;;;;;;5018259;28;20043;-70
2023/06/15 11:13:00;;;;;;;2.20;0.75;;;27.90;88.40;;;;;;5003040;28;20100;-70
2023/06/15 11:15:33;;;;;;;1.75;0.90;;;27.90;94.30;;;;;;5017784;28;20149;-70
2023/06/15 11:18:13;;;;;;;3.92;0.93;;;28.30;98.70;;;;;;5047515;28;20056;-70
2023/06/15 11:20:39;;;;;;;2.53;0.90;;;28.20;93.60;;;;;;5017063;28;20053;-71
2023/06/15 11:23:19;;;;;;;5.80;0.70;;;28.30;91.80;;;;;;5034072;28;20037;-70
2023/06/15 11:25:46;;;;;;;4.00;0.90;;;28.30;93.30;;;;;;5003605;28;20116;-71
2023/06/15 11:28:21;;;;;;;4.32;0.73;;;28.20;90.50;;;;;;5011256;28;20048;-71
2023/06/15 11:30:47;;;;;;;2.92;1.00;;;28.30;89.10;;;;;;5002210;28;20037;-71
2023/06/15 11:33:14;;;;;;;4.53;1.25;;;28.10;81.50;;;;;;5021714;28;20037;-72
2023/06/15 11:35:40;;;;;;;4.18;0.80;;;28.10;90.00;;;;;;5003685;28;20041;-71
2023/06/15 11:38:10;;;;;;;3.08;1.00;;;28.10;99.90;;;;;;5009699;28;20107;-70
2023/06/15 11:40:35;;;;;;;4.28;0.90;;;28.20;99.90;;;;;;5009593;28;20505;-70
2023/06/15 11:43:04;;;;;;;1.42;0.70;;;28.50;99.90;;;;;;5025658;28;20044;-71
2023/06/15 11:45:30;;;;;;;2.75;1.00;;;28.60;99.90;;;;;;5009253;28;20120;-69
2023/06/15 11:47:56;;;;;;;3.65;0.75;;;28.30;99.90;;;;;;5022687;28;20105;-71
2023/06/15 11:50:25;;;;;;;2.30;0.63;;;28.30;99.90;;;;;;5040230;28;20036;-70
2023/06/15 11:52:50;;;;;;;3.20;0.60;;;28.40;99.90;;;;;;5024321;28;20037;-71
2023/06/15 11:55:16;;;;;;;3.42;0.77;;;28.10;99.00;;;;;;5041345;28;20052;-72
2023/06/15 11:57:45;;;;;;;3.30;0.70;;;27.90;99.30;;;;;;5008983;28;20127;-71
2023/06/15 12:00:12;;;;;;;3.70;0.75;;;27.90;90.90;;;;;;5047528;28;20040;-71
2023/06/15 12:02:41;;;;;;;4.47;0.90;;;27.70;81.30;;;;;;5010181;28;20466;-71
2023/06/15 12:05:11;;;;;;;2.47;0.68;;;27.60;71.10;;;;;;5005582;28;20048;-72
2023/06/15 12:07:38;;;;;;;2.80;0.65;;;27.70;80.30;;;;;;5003401;28;20453;-72
2023/06/15 12:10:06;;;;;;;2.78;0.60;;;27.40;75.90;;;;;;5006642;28;20299;-71
2023/06/15 12:12:33;;;;;;;3.00;0.70;;;27.60;66.90;;;;;;5020965;28;20048;-71
2023/06/15 12:15:00;;;;;;;2.33;0.70;;;27.70;67.30;;;;;;5021264;28;20059;-72
2023/06/15 12:17:33;;;;;;;1.33;0.70;;;27.70;53.20;;;;;;5000344;28;20074;-72
2023/06/15 12:20:10;;;;;;;4.32;0.77;;;27.80;45.90;;;;;;5004447;28;20076;-72
2023/06/15 12:22:36;;;;;;;2.78;0.70;;;28.10;51.50;;;;;;5018861;28;20052;-71
2023/06/15 12:25:03;;;;;;;3.78;0.70;;;27.90;52.40;;;;;;5000019;28;20049;-71
2023/06/15 12:27:31;;;;;;;3.13;0.65;;;27.90;46.20;;;;;;5049279;28;20053;-72
2023/06/15 12:30:17;;;;;;;3.03;0.80;;;28.00;44.60;;;;;;5000022;28;20139;-72
2023/06/15 12:32:47;;;;;;;3.92;0.60;;;28.00;43.80;;;;;;5017815;28;20127;-72
2023/06/15 12:35:37;;;;;;;1.70;0.65;;;28.20;50.40;;;;;;5034667;28;20406;-72
2023/06/15 12:38:09;;;;;;;5.65;3.08;;;28.20;50.40;;;;;;5006610;28;20036;-72
2023/06/15 12:40:43;;;;;;;4.63;1.45;;;28.30;43.60;;;;;;5004127;28;20817;-72
2023/06/15 12:43:09;;;;;;;4.95;0.82;;;28.40;40.70;;;;;;5000264;28;20051;-71
2023/06/15 12:45:35;;;;;;;2.60;0.52;;;28.30;41.00;;;;;;5002957;28;20040;-71
2023/06/15 12:48:02;;;;;;;4.95;0.85;;;28.40;39.20;;;;;;5015371;28;20048;-71
2023/06/15 12:50:29;;;;;;;2.65;0.80;;;28.50;31.40;;;;;;5016155;28;20217;-71
2023/06/15 12:52:58;;;;;;;2.20;0.65;;;28.40;31.00;;;;;;4999219;28;20041;-71